PDT,Max TemperatureF,Mean TemperatureF,Min TemperatureF,Max Dew PointF,MeanDew PointF,Min DewpointF,Max Humidity, Mean Humidity, Min Humidity, Max Sea Level PressureIn, Mean Sea Level PressureIn, Min Sea Level PressureIn, Max VisibilityMiles, Mean VisibilityMiles, Min VisibilityMiles, Max Wind SpeedMPH, Mean Wind SpeedMPH, Max Gust SpeedMPH,PrecipitationIn, CloudCover, Events, WindDirDegrees
2013-5-1,74,67,60,55,53,52,78,64,49,30.09,29.97,29.91,10,10,4,13,5,16,0.00,5,,222
2013-5-2,95,76,57,55,46,6,93,49,4,30.12,30.06,29.98,10,9,7,17,5,23,0.00,0,,310
2013-5-3,94,75,56,58,34,8,78,41,4,30.00,29.87,29.78,10,10,10,17,5,21,0.00,0,,275
2013-5-4,69,63,57,59,54,49,84,72,59,29.86,29.80,29.76,10,9,7,16,9,25,0.00,5,,159
2013-5-5,66,62,57,55,51,48,80,68,56,29.95,29.91,29.83,10,10,5,16,9,23,0.11,8,Rain,152
2013-5-6,68,63,58,58,55,52,93,76,58,30.03,29.96,29.90,10,7,2,15,6,22,0.38,8,Rain,163
2013-5-7,71,65,58,56,51,45,84,62,40,30.07,30.02,29.99,10,10,3,15,6,21,0.17,4,Rain,234
2013-5-8,73,66,58,54,51,46,78,60,41,30.09,30.08,30.06,10,10,10,20,7,24,0.00,4,,272
2013-5-9,71,64,57,56,53,51,80,67,53,30.10,30.07,30.02,10,10,8,14,4,20,T,2,Rain,200
2013-5-10,80,70,59,57,56,54,87,66,45,30.09,30.06,30.01,10,9,5,16,5,20,0.00,2,,311
2013-5-11,82,72,61,60,58,57,90,71,51,30.07,30.04,29.99,10,8,6,14,5,18,0.00,2,,202
2013-5-12,88,74,60,61,58,55,97,66,35,30.06,30.00,29.90,10,6,2,16,4,,0.00,4,,204
2013-5-13,97,81,64,61,54,44,87,54,20,29.96,29.91,29.85,10,10,9,24,7,30,0.00,0,,276
2013-5-14,81,70,59,56,51,44,78,54,30,30.00,29.95,29.90,10,10,9,17,6,23,0.00,0,,319
2013-5-15,71,65,59,55,54,51,87,70,53,30.05,30.00,29.95,10,9,8,12,5,15,0.00,5,,179
2013-5-16,74,67,60,55,53,52,78,64,49,29.99,29.95,29.91,10,10,9,14,6,18,0.00,7,,217
2013-5-17,73,68,62,56,54,52,78,66,53,30.00,29.95,29.91,10,10,8,15,6,21,0.00,5,,191
2013-5-18,75,68,60,55,54,50,78,61,44,30.04,30.00,29.96,10,10,10,13,5,18,0.00,2,,187
2013-5-19,74,67,60,58,55,51,84,67,49,29.99,29.95,29.88,10,10,10,12,5,16,0.00,3,,166
2013-5-20,82,71,60,61,57,55,90,67,43,29.95,29.92,29.87,10,9,8,10,5,23,0.00,2,,164
2013-5-21,73,68,63,63,58,57,93,75,57,29.95,29.90,29.84,10,9,7,12,6,,0.00,4,,205
2013-5-22,75,68,60,56,54,52,73,61,49,29.85,29.82,29.78,10,10,8,13,6,,0.00,6,,171
2013-5-23,73,67,60,54,51,48,72,61,49,29.94,29.89,29.83,10,10,8,14,7,18,0.00,6,,212
2013-5-24,71,65,58,54,52,48,80,67,53,29.99,29.96,29.92,10,10,8,13,6,17,0.00,5,,193
2013-5-25,74,67,60,53,51,49,78,62,46,30.03,30.00,29.97,10,10,9,14,7,16,0.00,4,,152
2013-5-26,70,65,60,55,53,51,78,66,53,30.06,30.02,29.99,10,10,9,13,5,21,0.00,3,,162
2013-5-27,75,68,61,57,54,53,78,64,49,30.00,29.94,29.86,10,10,10,15,5,20,0.00,3,,180
2013-5-28,80,71,61,61,57,52,90,65,39,29.88,29.82,29.74,10,10,9,17,7,32,0.00,4,,168
2013-5-29,83,73,62,60,57,51,90,62,34,29.81,29.77,29.72,10,10,9,15,6,18,0.00,2,,155
2013-5-30,75,69,62,60,58,57,84,71,57,29.88,29.82,29.77,10,10,8,12,6,16,0.00,5,,162
2013-5-31,81,72,63,58,57,56,78,63,48,29.91,29.87,29.81,10,10,8,13,6,16,0.00,4,,192